sensor_id;sensor_type;location;lat;lon;timestamp;P1;durP1;ratioP1;P2;durP2;ratioP2
7605;SDS011;3844;53.360;9.738;2023-04-15T00:01:42;15.30;;;8.35;;
7605;SDS011;3844;53.360;9.738;2023-04-15T00:03:42;16.15;;;8.63;;
7605;SDS011;3844;53.360;9.738;2023-04-15T00:05:44;15.68;;;7.88;;
7605;SDS011;3844;53.360;9.738;2023-04-15T00:07:44;13.48;;;7.80;;
7605;SDS011;3844;53.360;9.738;2023-04-15T00:09:46;15.60;;;8.23;;
7605;SDS011;3844;53.360;9.738;2023-04-15T00:11:46;15.00;;;8.30;;
7605;SDS011;3844;53.360;9.738;2023-04-15T00:13:47;14.18;;;8.43;;
7605;SDS011;3844;53.360;9.738;2023-04-15T00:15:48;16.60;;;9.15;;
7605;SDS011;3844;53.360;9.738;2023-04-15T00:17:49;14.82;;;8.55;;
7605;SDS011;3844;53.360;9.738;2023-04-15T00:19:51;13.80;;;8.10;;
7605;SDS011;3844;53.360;9.738;2023-04-15T00:21:51;13.98;;;8.15;;
7605;SDS011;3844;53.360;9.738;2023-04-15T00:23:52;12.98;;;7.70;;
7605;SDS011;3844;53.360;9.738;2023-04-15T00:25:53;13.60;;;7.93;;
7605;SDS011;3844;53.360;9.738;2023-04-15T00:27:54;12.48;;;7.30;;
7605;SDS011;3844;53.360;9.738;2023-04-15T00:29:54;11.98;;;7.00;;
7605;SDS011;3844;53.360;9.738;2023-04-15T00:31:56;12.45;;;6.60;;
7605;SDS011;3844;53.360;9.738;2023-04-15T00:33:57;11.98;;;6.53;;
7605;SDS011;3844;53.360;9.738;2023-04-15T00:35:58;12.60;;;6.25;;
7605;SDS011;3844;53.360;9.738;2023-04-15T00:37:59;11.68;;;6.03;;
7605;SDS011;3844;53.360;9.738;2023-04-15T00:40:00;11.68;;;6.07;;
7605;SDS011;3844;53.360;9.738;2023-04-15T00:42:01;9.20;;;5.43;;
7605;SDS011;3844;53.360;9.738;2023-04-15T00:44:03;10.27;;;5.32;;
7605;SDS011;3844;53.360;9.738;2023-04-15T00:46:05;10.75;;;5.57;;
7605;SDS011;3844;53.360;9.738;2023-04-15T00:48:06;10.00;;;5.00;;
7605;SDS011;3844;53.360;9.738;2023-04-15T00:50:08;8.80;;;5.18;;
7605;SDS011;3844;53.360;9.738;2023-04-15T00:52:10;10.40;;;5.70;;
7605;SDS011;3844;53.360;9.738;2023-04-15T00:54:10;9.02;;;5.28;;
7605;SDS011;3844;53.360;9.738;2023-04-15T00:56:11;9.63;;;5.40;;
7605;SDS011;3844;53.360;9.738;2023-04-15T00:58:13;10.32;;;5.57;;
7605;SDS011;3844;53.360;9.738;2023-04-15T01:00:14;11.85;;;5.75;;
7605;SDS011;3844;53.360;9.738;2023-04-15T01:02:15;10.57;;;5.95;;
7605;SDS011;3844;53.360;9.738;2023-04-15T01:04:16;9.75;;;5.72;;
7605;SDS011;3844;53.360;9.738;2023-04-15T01:06:17;10.88;;;5.35;;
7605;SDS011;3844;53.360;9.738;2023-04-15T01:08:18;9.23;;;5.50;;
7605;SDS011;3844;53.360;9.738;2023-04-15T01:10:18;10.15;;;5.20;;
7605;SDS011;3844;53.360;9.738;2023-04-15T01:12:20;12.00;;;5.47;;
7605;SDS011;3844;53.360;9.738;2023-04-15T01:14:21;10.40;;;5.57;;
7605;SDS011;3844;53.360;9.738;2023-04-15T01:16:22;9.63;;;5.75;;
7605;SDS011;3844;53.360;9.738;2023-04-15T01:18:23;11.52;;;6.65;;
7605;SDS011;3844;53.360;9.738;2023-04-15T01:20:24;12.00;;;5.90;;
7605;SDS011;3844;53.360;9.738;2023-04-15T01:22:25;11.30;;;6.70;;
7605;SDS011;3844;53.360;9.738;2023-04-15T01:24:27;12.35;;;6.30;;
7605;SDS011;3844;53.360;9.738;2023-04-15T01:26:30;11.00;;;6.32;;
7605;SDS011;3844;53.360;9.738;2023-04-15T01:28:32;11.55;;;6.32;;
7605;SDS011;3844;53.360;9.738;2023-04-15T01:30:33;11.20;;;6.18;;
7605;SDS011;3844;53.360;9.738;2023-04-15T01:32:34;11.07;;;6.18;;
7605;SDS011;3844;53.360;9.738;2023-04-15T01:34:35;9.85;;;5.63;;
7605;SDS011;3844;53.360;9.738;2023-04-15T01:36:36;10.38;;;6.00;;
7605;SDS011;3844;53.360;9.738;2023-04-15T01:38:36;10.48;;;5.80;;
7605;SDS011;3844;53.360;9.738;2023-04-15T01:40:37;11.85;;;6.72;;
7605;SDS011;3844;53.360;9.738;2023-04-15T01:42:39;12.68;;;6.75;;
7605;SDS011;3844;53.360;9.738;2023-04-15T01:44:40;12.07;;;7.03;;
7605;SDS011;3844;53.360;9.738;2023-04-15T01:46:41;12.82;;;6.70;;
7605;SDS011;3844;53.360;9.738;2023-04-15T01:48:42;11.90;;;6.70;;
7605;SDS011;3844;53.360;9.738;2023-04-15T01:50:43;13.57;;;6.70;;
7605;SDS011;3844;53.360;9.738;2023-04-15T01:52:44;12.70;;;7.03;;
7605;SDS011;3844;53.360;9.738;2023-04-15T01:54:44;12.05;;;6.43;;
7605;SDS011;3844;53.360;9.738;2023-04-15T01:56:45;13.45;;;7.35;;
7605;SDS011;3844;53.360;9.738;2023-04-15T01:58:46;13.75;;;6.88;;
7605;SDS011;3844;53.360;9.738;2023-04-15T02:00:46;13.05;;;7.20;;
7605;SDS011;3844;53.360;9.738;2023-04-15T02:02:47;12.65;;;7.10;;
7605;SDS011;3844;53.360;9.738;2023-04-15T02:04:48;12.07;;;7.00;;
7605;SDS011;3844;53.360;9.738;2023-04-15T02:06:49;12.80;;;7.07;;
7605;SDS011;3844;53.360;9.738;2023-04-15T02:08:50;11.73;;;7.00;;
7605;SDS011;3844;53.360;9.738;2023-04-15T02:10:51;13.15;;;7.40;;
7605;SDS011;3844;53.360;9.738;2023-04-15T02:12:51;15.93;;;9.02;;
7605;SDS011;3844;53.360;9.738;2023-04-15T02:14:53;14.65;;;8.15;;
7605;SDS011;3844;53.360;9.738;2023-04-15T02:16:54;17.92;;;9.55;;
7605;SDS011;3844;53.360;9.738;2023-04-15T02:18:55;17.83;;;10.00;;
7605;SDS011;3844;53.360;9.738;2023-04-15T02:20:56;16.70;;;9.55;;
7605;SDS011;3844;53.360;9.738;2023-04-15T02:22:57;18.95;;;9.90;;
7605;SDS011;3844;53.360;9.738;2023-04-15T02:24:58;16.80;;;9.70;;
7605;SDS011;3844;53.360;9.738;2023-04-15T02:26:58;18.25;;;10.30;;
7605;SDS011;3844;53.360;9.738;2023-04-15T02:29:00;16.60;;;9.63;;
7605;SDS011;3844;53.360;9.738;2023-04-15T02:31:04;20.90;;;10.73;;
7605;SDS011;3844;53.360;9.738;2023-04-15T02:33:05;19.02;;;10.50;;
7605;SDS011;3844;53.360;9.738;2023-04-15T02:35:07;17.70;;;10.30;;
7605;SDS011;3844;53.360;9.738;2023-04-15T02:37:08;16.45;;;9.40;;
7605;SDS011;3844;53.360;9.738;2023-04-15T02:39:10;16.88;;;9.85;;
7605;SDS011;3844;53.360;9.738;2023-04-15T02:41:11;17.45;;;9.73;;
7605;SDS011;3844;53.360;9.738;2023-04-15T02:43:12;18.60;;;10.60;;
7605;SDS011;3844;53.360;9.738;2023-04-15T02:45:13;18.65;;;10.27;;
7605;SDS011;3844;53.360;9.738;2023-04-15T02:47:14;18.23;;;10.05;;
7605;SDS011;3844;53.360;9.738;2023-04-15T02:49:15;17.60;;;9.55;;
7605;SDS011;3844;53.360;9.738;2023-04-15T02:51:17;17.00;;;10.38;;
7605;SDS011;3844;53.360;9.738;2023-04-15T02:53:18;18.30;;;10.30;;
7605;SDS011;3844;53.360;9.738;2023-04-15T02:55:20;18.63;;;9.55;;
7605;SDS011;3844;53.360;9.738;2023-04-15T02:57:21;17.15;;;10.18;;
7605;SDS011;3844;53.360;9.738;2023-04-15T02:59:22;16.77;;;9.60;;
7605;SDS011;3844;53.360;9.738;2023-04-15T03:01:23;17.10;;;10.23;;
7605;SDS011;3844;53.360;9.738;2023-04-15T03:03:25;16.80;;;9.60;;
7605;SDS011;3844;53.360;9.738;2023-04-15T03:05:27;17.63;;;9.90;;
7605;SDS011;3844;53.360;9.738;2023-04-15T03:07:27;15.25;;;9.10;;
7605;SDS011;3844;53.360;9.738;2023-04-15T03:09:28;16.25;;;9.15;;
7605;SDS011;3844;53.360;9.738;2023-04-15T03:11:29;16.65;;;9.77;;
7605;SDS011;3844;53.360;9.738;2023-04-15T03:13:30;17.20;;;9.82;;
7605;SDS011;3844;53.360;9.738;2023-04-15T03:15:31;18.35;;;10.45;;
7605;SDS011;3844;53.360;9.738;2023-04-15T03:17:32;15.23;;;9.15;;
7605;SDS011;3844;53.360;9.738;2023-04-15T03:19:33;17.00;;;9.98;;
7605;SDS011;3844;53.360;9.738;2023-04-15T03:21:33;16.42;;;9.63;;
7605;SDS011;3844;53.360;9.738;2023-04-15T03:23:34;17.33;;;9.43;;
7605;SDS011;3844;53.360;9.738;2023-04-15T03:25:35;16.90;;;9.43;;
7605;SDS011;3844;53.360;9.738;2023-04-15T03:27:37;16.40;;;9.10;;
7605;SDS011;3844;53.360;9.738;2023-04-15T03:29:38;15.27;;;9.13;;
7605;SDS011;3844;53.360;9.738;2023-04-15T03:31:38;15.80;;;9.07;;
7605;SDS011;3844;53.360;9.738;2023-04-15T03:33:40;17.17;;;9.93;;
7605;SDS011;3844;53.360;9.738;2023-04-15T03:35:40;16.83;;;9.77;;
7605;SDS011;3844;53.360;9.738;2023-04-15T03:37:41;18.30;;;9.77;;
7605;SDS011;3844;53.360;9.738;2023-04-15T03:39:42;16.30;;;8.98;;
7605;SDS011;3844;53.360;9.738;2023-04-15T03:41:42;15.40;;;8.93;;
7605;SDS011;3844;53.360;9.738;2023-04-15T03:43:43;16.88;;;9.05;;
7605;SDS011;3844;53.360;9.738;2023-04-15T03:45:43;17.13;;;9.90;;
7605;SDS011;3844;53.360;9.738;2023-04-15T03:47:44;16.70;;;9.48;;
7605;SDS011;3844;53.360;9.738;2023-04-15T03:49:45;16.42;;;9.68;;
7605;SDS011;3844;53.360;9.738;2023-04-15T03:51:46;17.88;;;10.25;;
7605;SDS011;3844;53.360;9.738;2023-04-15T03:53:47;17.52;;;9.80;;
7605;SDS011;3844;53.360;9.738;2023-04-15T03:55:48;17.27;;;9.60;;
7605;SDS011;3844;53.360;9.738;2023-04-15T03:57:49;17.40;;;9.10;;
7605;SDS011;3844;53.360;9.738;2023-04-15T03:59:49;17.45;;;10.05;;
7605;SDS011;3844;53.360;9.738;2023-04-15T04:01:50;16.67;;;10.10;;
7605;SDS011;3844;53.360;9.738;2023-04-15T04:03:51;16.50;;;10.10;;
7605;SDS011;3844;53.360;9.738;2023-04-15T04:05:51;15.63;;;9.10;;
7605;SDS011;3844;53.360;9.738;2023-04-15T04:07:52;17.35;;;9.82;;
7605;SDS011;3844;53.360;9.738;2023-04-15T04:09:53;17.48;;;10.52;;
7605;SDS011;3844;53.360;9.738;2023-04-15T04:11:53;20.77;;;11.07;;
7605;SDS011;3844;53.360;9.738;2023-04-15T04:13:55;18.90;;;10.75;;
7605;SDS011;3844;53.360;9.738;2023-04-15T04:15:55;20.00;;;11.00;;
7605;SDS011;3844;53.360;9.738;2023-04-15T04:17:56;17.70;;;10.48;;
7605;SDS011;3844;53.360;9.738;2023-04-15T04:19:57;22.40;;;11.15;;
7605;SDS011;3844;53.360;9.738;2023-04-15T04:21:57;19.08;;;10.88;;
7605;SDS011;3844;53.360;9.738;2023-04-15T04:23:59;20.27;;;11.07;;
7605;SDS011;3844;53.360;9.738;2023-04-15T04:25:59;18.02;;;10.65;;
7605;SDS011;3844;53.360;9.738;2023-04-15T04:28:00;19.33;;;10.88;;
7605;SDS011;3844;53.360;9.738;2023-04-15T04:30:01;17.60;;;9.93;;
7605;SDS011;3844;53.360;9.738;2023-04-15T04:32:01;18.75;;;10.43;;
7605;SDS011;3844;53.360;9.738;2023-04-15T04:34:02;16.73;;;9.75;;
7605;SDS011;3844;53.360;9.738;2023-04-15T04:36:03;16.95;;;9.93;;
7605;SDS011;3844;53.360;9.738;2023-04-15T04:38:04;17.20;;;10.02;;
7605;SDS011;3844;53.360;9.738;2023-04-15T04:40:05;16.17;;;9.15;;
7605;SDS011;3844;53.360;9.738;2023-04-15T04:42:07;17.45;;;9.60;;
7605;SDS011;3844;53.360;9.738;2023-04-15T04:44:07;18.20;;;10.27;;
7605;SDS011;3844;53.360;9.738;2023-04-15T04:46:08;18.20;;;9.93;;
7605;SDS011;3844;53.360;9.738;2023-04-15T04:48:09;19.85;;;10.25;;
7605;SDS011;3844;53.360;9.738;2023-04-15T04:50:10;17.55;;;9.73;;
7605;SDS011;3844;53.360;9.738;2023-04-15T04:52:11;19.45;;;10.90;;
7605;SDS011;3844;53.360;9.738;2023-04-15T04:54:11;18.02;;;10.65;;
7605;SDS011;3844;53.360;9.738;2023-04-15T04:56:12;18.67;;;10.38;;
7605;SDS011;3844;53.360;9.738;2023-04-15T04:58:13;19.73;;;10.25;;
7605;SDS011;3844;53.360;9.738;2023-04-15T05:00:14;19.98;;;10.63;;
7605;SDS011;3844;53.360;9.738;2023-04-15T05:02:14;19.45;;;10.80;;
7605;SDS011;3844;53.360;9.738;2023-04-15T05:04:15;18.88;;;10.77;;
7605;SDS011;3844;53.360;9.738;2023-04-15T05:06:16;18.52;;;10.35;;
7605;SDS011;3844;53.360;9.738;2023-04-15T05:08:16;18.95;;;10.13;;
7605;SDS011;3844;53.360;9.738;2023-04-15T05:10:17;18.10;;;10.32;;
7605;SDS011;3844;53.360;9.738;2023-04-15T05:12:18;18.13;;;10.65;;
7605;SDS011;3844;53.360;9.738;2023-04-15T05:14:19;18.50;;;10.40;;
7605;SDS011;3844;53.360;9.738;2023-04-15T05:16:19;17.30;;;10.00;;
7605;SDS011;3844;53.360;9.738;2023-04-15T05:18:21;18.35;;;10.52;;
7605;SDS011;3844;53.360;9.738;2023-04-15T05:20:21;17.40;;;10.20;;
7605;SDS011;3844;53.360;9.738;2023-04-15T05:22:22;19.17;;;10.30;;
7605;SDS011;3844;53.360;9.738;2023-04-15T05:24:23;17.55;;;10.07;;
7605;SDS011;3844;53.360;9.738;2023-04-15T05:26:24;17.95;;;10.30;;
7605;SDS011;3844;53.360;9.738;2023-04-15T05:28:26;18.95;;;10.88;;
7605;SDS011;3844;53.360;9.738;2023-04-15T05:30:27;17.60;;;10.20;;
7605;SDS011;3844;53.360;9.738;2023-04-15T05:32:27;19.38;;;11.00;;
7605;SDS011;3844;53.360;9.738;2023-04-15T05:34:28;16.98;;;10.30;;
7605;SDS011;3844;53.360;9.738;2023-04-15T05:36:29;19.10;;;10.75;;
7605;SDS011;3844;53.360;9.738;2023-04-15T05:38:30;21.75;;;11.85;;
7605;SDS011;3844;53.360;9.738;2023-04-15T05:40:31;22.02;;;11.55;;
7605;SDS011;3844;53.360;9.738;2023-04-15T05:42:32;19.08;;;10.90;;
7605;SDS011;3844;53.360;9.738;2023-04-15T05:44:34;20.35;;;11.50;;
7605;SDS011;3844;53.360;9.738;2023-04-15T05:46:35;21.38;;;12.48;;
7605;SDS011;3844;53.360;9.738;2023-04-15T05:48:36;22.05;;;12.20;;
7605;SDS011;3844;53.360;9.738;2023-04-15T05:50:36;21.77;;;11.70;;
7605;SDS011;3844;53.360;9.738;2023-04-15T05:52:43;23.15;;;12.52;;
7605;SDS011;3844;53.360;9.738;2023-04-15T05:54:44;20.92;;;11.85;;
7605;SDS011;3844;53.360;9.738;2023-04-15T05:56:45;19.88;;;11.43;;
7605;SDS011;3844;53.360;9.738;2023-04-15T05:58:46;21.55;;;11.65;;
7605;SDS011;3844;53.360;9.738;2023-04-15T06:00:47;23.95;;;12.80;;
7605;SDS011;3844;53.360;9.738;2023-04-15T06:02:48;26.27;;;13.55;;
7605;SDS011;3844;53.360;9.738;2023-04-15T06:04:49;29.33;;;14.10;;
7605;SDS011;3844;53.360;9.738;2023-04-15T06:06:49;26.65;;;14.45;;
7605;SDS011;3844;53.360;9.738;2023-04-15T06:08:51;27.42;;;14.15;;
7605;SDS011;3844;53.360;9.738;2023-04-15T06:10:52;28.23;;;14.95;;
7605;SDS011;3844;53.360;9.738;2023-04-15T06:12:52;29.55;;;14.77;;
7605;SDS011;3844;53.360;9.738;2023-04-15T06:14:53;30.45;;;15.20;;
7605;SDS011;3844;53.360;9.738;2023-04-15T06:16:54;30.85;;;14.90;;
7605;SDS011;3844;53.360;9.738;2023-04-15T06:18:55;32.30;;;15.50;;
7605;SDS011;3844;53.360;9.738;2023-04-15T06:20:56;29.60;;;14.65;;
7605;SDS011;3844;53.360;9.738;2023-04-15T06:22:56;32.00;;;15.75;;
7605;SDS011;3844;53.360;9.738;2023-04-15T06:24:58;37.97;;;17.38;;
7605;SDS011;3844;53.360;9.738;2023-04-15T06:26:58;38.30;;;17.75;;
7605;SDS011;3844;53.360;9.738;2023-04-15T06:29:01;41.30;;;18.20;;
7605;SDS011;3844;53.360;9.738;2023-04-15T06:31:01;38.28;;;17.88;;
7605;SDS011;3844;53.360;9.738;2023-04-15T06:33:02;40.88;;;18.17;;
7605;SDS011;3844;53.360;9.738;2023-04-15T06:35:05;36.88;;;17.83;;
7605;SDS011;3844;53.360;9.738;2023-04-15T06:37:06;39.40;;;17.98;;
7605;SDS011;3844;53.360;9.738;2023-04-15T06:39:06;40.05;;;19.25;;
7605;SDS011;3844;53.360;9.738;2023-04-15T06:41:07;39.40;;;18.77;;
7605;SDS011;3844;53.360;9.738;2023-04-15T06:43:08;42.08;;;19.25;;
7605;SDS011;3844;53.360;9.738;2023-04-15T06:45:09;40.67;;;19.40;;
7605;SDS011;3844;53.360;9.738;2023-04-15T06:47:10;40.95;;;18.92;;
7605;SDS011;3844;53.360;9.738;2023-04-15T06:49:13;32.70;;;15.60;;
7605;SDS011;3844;53.360;9.738;2023-04-15T06:51:14;41.72;;;20.40;;
7605;SDS011;3844;53.360;9.738;2023-04-15T06:53:15;42.63;;;20.58;;
7605;SDS011;3844;53.360;9.738;2023-04-15T06:55:15;43.08;;;20.33;;
7605;SDS011;3844;53.360;9.738;2023-04-15T06:57:16;44.88;;;21.33;;
7605;SDS011;3844;53.360;9.738;2023-04-15T06:59:17;46.30;;;22.27;;
7605;SDS011;3844;53.360;9.738;2023-04-15T07:01:18;52.58;;;24.02;;
7605;SDS011;3844;53.360;9.738;2023-04-15T07:03:19;49.03;;;22.92;;
7605;SDS011;3844;53.360;9.738;2023-04-15T07:05:19;47.08;;;22.63;;
7605;SDS011;3844;53.360;9.738;2023-04-15T07:07:20;49.38;;;23.13;;
7605;SDS011;3844;53.360;9.738;2023-04-15T07:09:22;45.00;;;22.02;;
7605;SDS011;3844;53.360;9.738;2023-04-15T07:11:24;50.05;;;23.23;;
7605;SDS011;3844;53.360;9.738;2023-04-15T07:13:25;47.17;;;23.15;;
7605;SDS011;3844;53.360;9.738;2023-04-15T07:15:26;50.47;;;23.67;;
7605;SDS011;3844;53.360;9.738;2023-04-15T07:17:27;48.80;;;23.17;;
7605;SDS011;3844;53.360;9.738;2023-04-15T07:19:28;44.72;;;22.02;;
7605;SDS011;3844;53.360;9.738;2023-04-15T07:21:28;47.47;;;22.48;;
7605;SDS011;3844;53.360;9.738;2023-04-15T07:23:29;46.60;;;22.88;;
7605;SDS011;3844;53.360;9.738;2023-04-15T07:25:30;50.33;;;23.10;;
7605;SDS011;3844;53.360;9.738;2023-04-15T07:27:31;49.00;;;23.25;;
7605;SDS011;3844;53.360;9.738;2023-04-15T07:29:32;51.67;;;23.67;;
7605;SDS011;3844;53.360;9.738;2023-04-15T07:31:33;51.75;;;23.00;;
7605;SDS011;3844;53.360;9.738;2023-04-15T07:33:33;51.97;;;24.17;;
7605;SDS011;3844;53.360;9.738;2023-04-15T07:35:34;49.67;;;24.13;;
7605;SDS011;3844;53.360;9.738;2023-04-15T07:37:35;51.25;;;24.13;;
7605;SDS011;3844;53.360;9.738;2023-04-15T07:39:36;51.60;;;23.50;;
7605;SDS011;3844;53.360;9.738;2023-04-15T07:41:37;47.13;;;22.60;;
7605;SDS011;3844;53.360;9.738;2023-04-15T07:43:38;51.58;;;24.67;;
7605;SDS011;3844;53.360;9.738;2023-04-15T07:45:38;49.35;;;22.77;;
7605;SDS011;3844;53.360;9.738;2023-04-15T07:47:39;49.72;;;23.67;;
7605;SDS011;3844;53.360;9.738;2023-04-15T07:49:41;48.55;;;23.08;;
7605;SDS011;3844;53.360;9.738;2023-04-15T07:51:42;51.83;;;24.67;;
7605;SDS011;3844;53.360;9.738;2023-04-15T07:53:43;50.50;;;23.92;;
7605;SDS011;3844;53.360;9.738;2023-04-15T07:55:44;52.47;;;24.65;;
7605;SDS011;3844;53.360;9.738;2023-04-15T07:57:45;48.53;;;24.02;;
7605;SDS011;3844;53.360;9.738;2023-04-15T07:59:46;51.55;;;23.70;;
7605;SDS011;3844;53.360;9.738;2023-04-15T08:01:47;51.47;;;24.52;;
7605;SDS011;3844;53.360;9.738;2023-04-15T08:03:48;49.53;;;23.77;;
7605;SDS011;3844;53.360;9.738;2023-04-15T08:05:48;45.30;;;23.42;;
7605;SDS011;3844;53.360;9.738;2023-04-15T08:07:49;48.55;;;23.73;;
7605;SDS011;3844;53.360;9.738;2023-04-15T08:09:50;50.05;;;23.63;;
7605;SDS011;3844;53.360;9.738;2023-04-15T08:11:51;49.92;;;24.77;;
7605;SDS011;3844;53.360;9.738;2023-04-15T08:13:52;52.28;;;25.63;;
7605;SDS011;3844;53.360;9.738;2023-04-15T08:18:13;52.92;;;25.67;;
7605;SDS011;3844;53.360;9.738;2023-04-15T08:20:13;52.67;;;25.05;;
7605;SDS011;3844;53.360;9.738;2023-04-15T08:22:14;55.70;;;26.60;;
7605;SDS011;3844;53.360;9.738;2023-04-15T08:24:15;55.28;;;26.33;;
7605;SDS011;3844;53.360;9.738;2023-04-15T08:26:16;57.30;;;27.23;;
7605;SDS011;3844;53.360;9.738;2023-04-15T08:28:17;55.70;;;26.77;;
7605;SDS011;3844;53.360;9.738;2023-04-15T08:30:18;57.00;;;27.02;;
7605;SDS011;3844;53.360;9.738;2023-04-15T08:32:19;56.30;;;27.30;;
7605;SDS011;3844;53.360;9.738;2023-04-15T08:34:20;59.40;;;28.05;;
7605;SDS011;3844;53.360;9.738;2023-04-15T08:36:21;52.47;;;25.83;;
7605;SDS011;3844;53.360;9.738;2023-04-15T08:38:22;57.63;;;27.13;;
7605;SDS011;3844;53.360;9.738;2023-04-15T08:40:22;59.22;;;28.30;;
7605;SDS011;3844;53.360;9.738;2023-04-15T08:42:40;55.53;;;26.25;;
7605;SDS011;3844;53.360;9.738;2023-04-15T08:44:43;54.17;;;27.42;;
7605;SDS011;3844;53.360;9.738;2023-04-15T08:46:46;53.60;;;27.50;;
7605;SDS011;3844;53.360;9.738;2023-04-15T08:48:47;55.00;;;27.77;;
7605;SDS011;3844;53.360;9.738;2023-04-15T08:50:49;54.78;;;26.40;;
7605;SDS011;3844;53.360;9.738;2023-04-15T08:52:53;60.47;;;28.20;;
7605;SDS011;3844;53.360;9.738;2023-04-15T08:56:57;58.13;;;27.42;;
7605;SDS011;3844;53.360;9.738;2023-04-15T08:58:58;59.22;;;27.08;;
7605;SDS011;3844;53.360;9.738;2023-04-15T09:00:59;53.55;;;25.85;;
7605;SDS011;3844;53.360;9.738;2023-04-15T09:03:00;52.17;;;25.70;;
7605;SDS011;3844;53.360;9.738;2023-04-15T09:05:01;53.15;;;26.88;;
7605;SDS011;3844;53.360;9.738;2023-04-15T09:09:05;56.60;;;27.70;;
7605;SDS011;3844;53.360;9.738;2023-04-15T09:11:06;56.53;;;28.30;;
7605;SDS011;3844;53.360;9.738;2023-04-15T09:13:07;57.28;;;28.35;;
7605;SDS011;3844;53.360;9.738;2023-04-15T09:15:11;55.42;;;27.45;;
7605;SDS011;3844;53.360;9.738;2023-04-15T09:17:12;59.15;;;28.95;;
7605;SDS011;3844;53.360;9.738;2023-04-15T09:19:19;64.53;;;30.38;;
7605;SDS011;3844;53.360;9.738;2023-04-15T09:21:21;61.55;;;30.30;;
7605;SDS011;3844;53.360;9.738;2023-04-15T09:23:22;60.05;;;28.98;;
7605;SDS011;3844;53.360;9.738;2023-04-15T09:27:25;64.00;;;31.13;;
7605;SDS011;3844;53.360;9.738;2023-04-15T09:29:26;61.95;;;30.13;;
7605;SDS011;3844;53.360;9.738;2023-04-15T09:31:29;58.58;;;29.23;;
7605;SDS011;3844;53.360;9.738;2023-04-15T09:35:30;64.13;;;29.98;;
7605;SDS011;3844;53.360;9.738;2023-04-15T09:37:34;60.15;;;29.33;;
7605;SDS011;3844;53.360;9.738;2023-04-15T09:39:45;62.72;;;30.92;;
7605;SDS011;3844;53.360;9.738;2023-04-15T09:41:47;60.05;;;30.27;;
7605;SDS011;3844;53.360;9.738;2023-04-15T09:44:06;67.75;;;32.58;;
7605;SDS011;3844;53.360;9.738;2023-04-15T09:46:38;63.38;;;30.67;;
7605;SDS011;3844;53.360;9.738;2023-04-15T09:48:44;62.28;;;30.70;;
7605;SDS011;3844;53.360;9.738;2023-04-15T09:50:45;64.88;;;32.30;;
7605;SDS011;3844;53.360;9.738;2023-04-15T09:52:47;62.50;;;30.60;;
7605;SDS011;3844;53.360;9.738;2023-04-15T09:54:50;63.10;;;31.17;;
7605;SDS011;3844;53.360;9.738;2023-04-15T09:56:56;62.95;;;32.15;;
7605;SDS011;3844;53.360;9.738;2023-04-15T09:59:04;65.38;;;32.60;;
7605;SDS011;3844;53.360;9.738;2023-04-15T10:01:05;63.92;;;31.80;;
7605;SDS011;3844;53.360;9.738;2023-04-15T10:03:08;45.33;;;23.30;;
7605;SDS011;3844;53.360;9.738;2023-04-15T10:05:13;63.17;;;31.42;;
7605;SDS011;3844;53.360;9.738;2023-04-15T10:07:16;59.10;;;31.38;;
7605;SDS011;3844;53.360;9.738;2023-04-15T10:09:19;60.78;;;30.05;;
7605;SDS011;3844;53.360;9.738;2023-04-15T10:11:20;60.90;;;31.52;;
7605;SDS011;3844;53.360;9.738;2023-04-15T10:13:24;44.60;;;23.00;;
7605;SDS011;3844;53.360;9.738;2023-04-15T10:15:27;54.42;;;28.33;;
7605;SDS011;3844;53.360;9.738;2023-04-15T10:17:29;63.95;;;30.90;;
7605;SDS011;3844;53.360;9.738;2023-04-15T10:19:36;60.58;;;31.23;;
7605;SDS011;3844;53.360;9.738;2023-04-15T10:21:37;59.20;;;30.00;;
7605;SDS011;3844;53.360;9.738;2023-04-15T10:23:39;54.92;;;29.30;;
7605;SDS011;3844;53.360;9.738;2023-04-15T10:25:40;55.88;;;29.08;;
7605;SDS011;3844;53.360;9.738;2023-04-15T10:27:41;52.50;;;28.02;;
7605;SDS011;3844;53.360;9.738;2023-04-15T10:29:42;53.20;;;28.40;;
7605;SDS011;3844;53.360;9.738;2023-04-15T10:31:43;50.33;;;27.80;;
7605;SDS011;3844;53.360;9.738;2023-04-15T10:33:45;56.45;;;28.15;;
7605;SDS011;3844;53.360;9.738;2023-04-15T10:35:47;48.95;;;27.13;;
7605;SDS011;3844;53.360;9.738;2023-04-15T10:37:50;36.42;;;20.05;;
7605;SDS011;3844;53.360;9.738;2023-04-15T10:39:51;49.88;;;26.60;;
7605;SDS011;3844;53.360;9.738;2023-04-15T10:42:13;44.45;;;24.98;;
7605;SDS011;3844;53.360;9.738;2023-04-15T10:44:14;44.45;;;25.38;;
7605;SDS011;3844;53.360;9.738;2023-04-15T10:46:22;46.05;;;26.73;;
7605;SDS011;3844;53.360;9.738;2023-04-15T10:48:24;49.28;;;26.73;;
7605;SDS011;3844;53.360;9.738;2023-04-15T10:50:25;46.60;;;25.90;;
7605;SDS011;3844;53.360;9.738;2023-04-15T10:52:27;44.85;;;25.52;;
7605;SDS011;3844;53.360;9.738;2023-04-15T10:56:29;46.38;;;25.70;;
7605;SDS011;3844;53.360;9.738;2023-04-15T10:58:40;46.42;;;25.85;;
7605;SDS011;3844;53.360;9.738;2023-04-15T11:00:41;47.45;;;26.23;;
7605;SDS011;3844;53.360;9.738;2023-04-15T11:02:55;44.30;;;25.65;;
7605;SDS011;3844;53.360;9.738;2023-04-15T11:05:04;42.08;;;23.77;;
7605;SDS011;3844;53.360;9.738;2023-04-15T11:07:05;47.55;;;25.33;;
7605;SDS011;3844;53.360;9.738;2023-04-15T11:09:06;45.30;;;25.90;;
7605;SDS011;3844;53.360;9.738;2023-04-15T11:11:08;46.97;;;25.77;;
7605;SDS011;3844;53.360;9.738;2023-04-15T11:17:32;41.55;;;23.67;;
7605;SDS011;3844;53.360;9.738;2023-04-15T11:19:36;43.00;;;25.55;;
7605;SDS011;3844;53.360;9.738;2023-04-15T11:21:38;45.97;;;24.55;;
7605;SDS011;3844;53.360;9.738;2023-04-15T11:23:39;45.30;;;25.52;;
7605;SDS011;3844;53.360;9.738;2023-04-15T11:25:45;41.42;;;24.63;;
7605;SDS011;3844;53.360;9.738;2023-04-15T11:27:47;41.47;;;24.83;;
7605;SDS011;3844;53.360;9.738;2023-04-15T11:29:49;41.92;;;24.25;;
7605;SDS011;3844;53.360;9.738;2023-04-15T11:31:49;44.88;;;25.88;;
7605;SDS011;3844;53.360;9.738;2023-04-15T11:33:54;42.20;;;24.55;;
7605;SDS011;3844;53.360;9.738;2023-04-15T11:35:57;37.28;;;22.77;;
7605;SDS011;3844;53.360;9.738;2023-04-15T11:38:01;40.25;;;24.35;;
7605;SDS011;3844;53.360;9.738;2023-04-15T11:40:07;39.83;;;23.67;;
7605;SDS011;3844;53.360;9.738;2023-04-15T11:42:17;38.85;;;23.15;;
7605;SDS011;3844;53.360;9.738;2023-04-15T11:44:18;39.17;;;22.73;;
7605;SDS011;3844;53.360;9.738;2023-04-15T11:46:19;41.15;;;23.88;;
7605;SDS011;3844;53.360;9.738;2023-04-15T11:48:22;41.03;;;24.23;;
7605;SDS011;3844;53.360;9.738;2023-04-15T11:50:33;37.03;;;22.85;;
7605;SDS011;3844;53.360;9.738;2023-04-15T11:52:35;41.63;;;24.08;;
7605;SDS011;3844;53.360;9.738;2023-04-15T11:54:35;36.17;;;22.42;;
7605;SDS011;3844;53.360;9.738;2023-04-15T11:56:36;39.90;;;23.35;;
7605;SDS011;3844;53.360;9.738;2023-04-15T11:58:37;36.75;;;22.92;;
7605;SDS011;3844;53.360;9.738;2023-04-15T12:00:38;34.67;;;21.50;;
7605;SDS011;3844;53.360;9.738;2023-04-15T12:02:40;36.80;;;21.77;;
7605;SDS011;3844;53.360;9.738;2023-04-15T12:04:40;32.58;;;20.65;;
7605;SDS011;3844;53.360;9.738;2023-04-15T12:06:41;34.03;;;21.40;;
7605;SDS011;3844;53.360;9.738;2023-04-15T12:10:57;34.10;;;20.77;;
7605;SDS011;3844;53.360;9.738;2023-04-15T12:12:58;35.83;;;21.33;;
7605;SDS011;3844;53.360;9.738;2023-04-15T12:14:59;30.42;;;19.27;;
7605;SDS011;3844;53.360;9.738;2023-04-15T12:17:00;34.95;;;20.98;;
7605;SDS011;3844;53.360;9.738;2023-04-15T12:19:10;31.70;;;20.98;;
7605;SDS011;3844;53.360;9.738;2023-04-15T12:21:13;32.30;;;19.80;;
7605;SDS011;3844;53.360;9.738;2023-04-15T12:23:17;39.67;;;23.52;;
7605;SDS011;3844;53.360;9.738;2023-04-15T12:25:31;35.53;;;21.60;;
7605;SDS011;3844;53.360;9.738;2023-04-15T12:27:33;40.63;;;23.23;;
7605;SDS011;3844;53.360;9.738;2023-04-15T12:29:35;38.65;;;23.25;;
7605;SDS011;3844;53.360;9.738;2023-04-15T12:32:11;35.50;;;21.88;;
7605;SDS011;3844;53.360;9.738;2023-04-15T12:34:07;34.78;;;19.98;;
7605;SDS011;3844;53.360;9.738;2023-04-15T12:36:08;29.88;;;18.95;;
7605;SDS011;3844;53.360;9.738;2023-04-15T12:38:09;26.55;;;15.98;;